Time;durP1;ratioP1;P1;durP2;ratioP2;P2;SDS_P1;SDS_P2;PMS_P1;PMS_P2;Temp;Humidity;BMP_temperature;BMP_pressure;BME280_temperature;BME280_humidity;BME280_pressure;Samples;Min_cycle;Max_cycle;Signal;HPM_P1;HPM_P2
2023/08/01 00:00:36;;;;;;;5.88;3.40;;;;;;;;;;4953912;28;20035;-70
2023/08/01 00:03:02;;;;;;;4.60;3.50;;;;;;;;;;4954184;29;20465;-71
2023/08/01 00:05:28;;;;;;;4.65;3.33;;;;;;;;;;4954400;29;20027;-71
2023/08/01 00:07:54;;;;;;;4.85;3.35;;;;;;;;;;4954278;29;20027;-70
2023/08/01 00:10:21;;;;;;;4.65;3.60;;;;;;;;;;4954160;29;20046;-70
2023/08/01 00:12:47;;;;;;;4.05;3.40;;;;;;;;;;4954206;29;20033;-71
2023/08/01 00:15:14;;;;;;;5.90;3.80;;;;;;;;;;4954129;29;20027;-71
2023/08/01 00:17:40;;;;;;;5.47;3.50;;;;;;;;;;4954320;28;20027;-71
2023/08/01 00:20:07;;;;;;;4.30;3.42;;;;;;;;;;4954029;29;20050;-71
2023/08/01 00:22:33;;;;;;;5.63;3.22;;;;;;;;;;4954072;28;20016;-71
2023/08/01 00:25:00;;;;;;;5.47;3.47;;;;;;;;;;4952975;28;20049;-71
2023/08/01 00:27:26;;;;;;;4.53;3.40;;;;;;;;;;4956657;29;20034;-71
2023/08/01 00:29:52;;;;;;;4.75;3.42;;;;;;;;;;4957410;28;20507;-71
2023/08/01 00:32:19;;;;;;;4.75;3.22;;;;;;;;;;4957804;28;20012;-71
2023/08/01 00:34:45;;;;;;;5.07;3.30;;;;;;;;;;4956343;29;20047;-71
2023/08/01 00:37:11;;;;;;;5.25;3.28;;;;;;;;;;4957294;29;20027;-71
2023/08/01 00:39:38;;;;;;;4.38;3.25;;;;;;;;;;4957421;29;20043;-70
2023/08/01 00:42:04;;;;;;;4.10;3.15;;;;;;;;;;4957493;29;20039;-71
2023/08/01 00:44:30;;;;;;;4.47;3.30;;;;;;;;;;4957186;29;20419;-71
2023/08/01 00:46:57;;;;;;;4.70;3.65;;;;;;;;;;4957309;28;20037;-71
2023/08/01 00:49:23;;;;;;;4.97;3.10;;;;;;;;;;4957285;29;20468;-71
2023/08/01 00:51:49;;;;;;;4.82;3.63;;;;;;;;;;4957461;28;20373;-71
2023/08/01 00:54:16;;;;;;;4.07;2.92;;;;;;;;;;4957162;29;20016;-71
2023/08/01 00:56:43;;;;;;;3.60;3.28;;;;;;;;;;4957433;29;20038;-71
2023/08/01 00:59:09;;;;;;;5.47;3.47;;;;;;;;;;4956863;28;20476;-71
2023/08/01 01:01:35;;;;;;;5.32;3.50;;;;;;;;;;4957017;29;20035;-71
2023/08/01 01:04:02;;;;;;;5.07;3.08;;;;;;;;;;4957030;29;20019;-71
2023/08/01 01:06:47;;;;;;;5.13;3.47;;;;;;;;;;4956990;29;20090;-70
2023/08/01 01:09:17;;;;;;;3.83;3.00;;;;;;;;;;4957037;28;20042;-71
2023/08/01 01:11:44;;;;;;;4.55;3.33;;;;;;;;;;4956848;28;20031;-71
2023/08/01 01:14:10;;;;;;;4.75;3.13;;;;;;;;;;4956780;29;20031;-71
2023/08/01 01:16:37;;;;;;;5.03;3.28;;;;;;;;;;4956860;29;20471;-71
2023/08/01 01:19:06;;;;;;;4.35;3.28;;;;;;;;;;4956819;29;20053;-71
2023/08/01 01:21:34;;;;;;;4.13;3.30;;;;;;;;;;4956656;29;20039;-71
2023/08/01 01:24:02;;;;;;;5.47;3.67;;;;;;;;;;4956621;29;20789;-71
2023/08/01 01:26:29;;;;;;;4.55;3.00;;;;;;;;;;4956482;29;20059;-71
2023/08/01 01:28:55;;;;;;;4.97;3.25;;;;;;;;;;4955304;29;20031;-71
2023/08/01 01:31:22;;;;;;;4.95;3.40;;;;;;;;;;4956472;28;20023;-71
2023/08/01 01:33:48;;;;;;;5.03;3.30;;;;;;;;;;4956511;29;20059;-71
2023/08/01 01:36:14;;;;;;;6.20;3.05;;;;;;;;;;4956181;28;20033;-71
2023/08/01 01:38:41;;;;;;;5.03;3.40;;;;;;;;;;4955981;28;20019;-71
2023/08/01 01:41:07;;;;;;;4.07;3.20;;;;;;;;;;4955955;29;20423;-71
2023/08/01 01:43:33;;;;;;;4.28;3.20;;;;;;;;;;4955471;29;20035;-71
2023/08/01 01:45:59;;;;;;;3.95;3.10;;;;;;;;;;4956315;29;20028;-71
2023/08/01 01:48:26;;;;;;;4.53;3.38;;;;;;;;;;4956283;29;20027;-71
2023/08/01 01:50:52;;;;;;;8.98;3.30;;;;;;;;;;4956380;29;20027;-71
2023/08/01 01:53:18;;;;;;;5.18;3.55;;;;;;;;;;4956142;29;20019;-71
2023/08/01 01:55:45;;;;;;;4.15;2.75;;;;;;;;;;4956087;29;20030;-71
2023/08/01 01:58:11;;;;;;;3.45;2.90;;;;;;;;;;4956101;29;20389;-71
2023/08/01 02:00:37;;;;;;;4.53;3.05;;;;;;;;;;4956009;29;20411;-71
2023/08/01 02:03:04;;;;;;;3.95;3.00;;;;;;;;;;4955941;29;20035;-71
2023/08/01 02:05:30;;;;;;;4.18;2.80;;;;;;;;;;4955902;29;20417;-71
2023/08/01 02:07:57;;;;;;;6.13;2.80;;;;;;;;;;4955647;29;20019;-71
2023/08/01 02:10:23;;;;;;;4.07;2.80;;;;;;;;;;4955790;29;20039;-71
2023/08/01 02:12:49;;;;;;;4.28;3.03;;;;;;;;;;4955741;29;20042;-71
2023/08/01 02:15:16;;;;;;;4.53;3.22;;;;;;;;;;4955608;29;20031;-71
2023/08/01 02:17:42;;;;;;;3.92;2.85;;;;;;;;;;4955744;28;20385;-71
2023/08/01 02:20:09;;;;;;;5.30;3.40;;;;;;;;;;4955716;29;20507;-71
2023/08/01 02:22:35;;;;;;;5.00;3.10;;;;;;;;;;4955837;29;20031;-71
2023/08/01 02:25:01;;;;;;;3.45;2.88;;;;;;;;;;4955454;29;20046;-71
2023/08/01 02:27:28;;;;;;;3.38;2.42;;;;;;;;;;4955853;29;20082;-71
2023/08/01 02:29:54;;;;;;;4.57;3.17;;;;;;;;;;4955298;29;20030;-71
2023/08/01 02:32:20;;;;;;;3.83;2.65;;;;;;;;;;4954468;29;20058;-71
2023/08/01 02:34:47;;;;;;;5.03;3.00;;;;;;;;;;4955320;28;20073;-71
2023/08/01 02:37:13;;;;;;;3.03;2.72;;;;;;;;;;4955072;29;20039;-70
2023/08/01 02:39:40;;;;;;;3.92;3.08;;;;;;;;;;4953859;29;20039;-71
2023/08/01 02:42:06;;;;;;;3.85;2.90;;;;;;;;;;4955513;29;20031;-71
2023/08/01 02:44:32;;;;;;;4.55;3.00;;;;;;;;;;4955138;29;20020;-71
2023/08/01 02:46:59;;;;;;;4.90;3.10;;;;;;;;;;4955239;29;20033;-71
2023/08/01 02:49:25;;;;;;;3.35;2.83;;;;;;;;;;4954841;28;20023;-71
2023/08/01 02:51:51;;;;;;;4.43;3.30;;;;;;;;;;4955099;28;20023;-71
2023/08/01 02:54:17;;;;;;;4.13;2.83;;;;;;;;;;4954833;29;20031;-71
2023/08/01 02:56:44;;;;;;;3.75;2.80;;;;;;;;;;4954117;29;20034;-71
2023/08/01 02:59:10;;;;;;;4.70;3.00;;;;;;;;;;4955045;29;20070;-71
2023/08/01 03:01:37;;;;;;;3.47;2.67;;;;;;;;;;4954615;28;20035;-71
2023/08/01 03:04:04;;;;;;;2.60;2.40;;;;;;;;;;4954953;29;20078;-71
2023/08/01 03:06:31;;;;;;;4.28;2.88;;;;;;;;;;4955172;28;20496;-71
2023/08/01 03:08:58;;;;;;;3.58;2.70;;;;;;;;;;4954849;28;20053;-71
2023/08/01 03:11:24;;;;;;;3.88;2.78;;;;;;;;;;4954958;29;20025;-71
2023/08/01 03:13:50;;;;;;;3.85;3.15;;;;;;;;;;4955025;29;20039;-71
2023/08/01 03:16:17;;;;;;;3.08;2.50;;;;;;;;;;4955110;29;20045;-71
2023/08/01 03:18:43;;;;;;;3.10;2.58;;;;;;;;;;4954801;28;20031;-71
2023/08/01 03:21:10;;;;;;;3.60;2.40;;;;;;;;;;4953701;29;20040;-71
2023/08/01 03:23:36;;;;;;;3.35;2.60;;;;;;;;;;4954414;29;20027;-71
2023/08/01 03:26:03;;;;;;;4.47;2.80;;;;;;;;;;4953458;29;20043;-71
2023/08/01 03:28:29;;;;;;;3.70;2.90;;;;;;;;;;4954584;29;20024;-71
2023/08/01 03:30:56;;;;;;;3.47;2.65;;;;;;;;;;4954896;29;20035;-71
2023/08/01 03:33:22;;;;;;;4.93;2.70;;;;;;;;;;4954599;29;20043;-71
2023/08/01 03:35:48;;;;;;;3.28;2.65;;;;;;;;;;4954315;28;20043;-71
2023/08/01 03:38:15;;;;;;;3.70;2.78;;;;;;;;;;4954034;29;20015;-71
2023/08/01 03:40:41;;;;;;;3.88;2.67;;;;;;;;;;4954197;28;20510;-71
2023/08/01 03:43:09;;;;;;;3.42;2.83;;;;;;;;;;4954428;28;20029;-71
2023/08/01 03:45:36;;;;;;;4.22;2.88;;;;;;;;;;4954511;29;20024;-71
2023/08/01 03:48:02;;;;;;;4.32;2.58;;;;;;;;;;4954465;28;20041;-71
2023/08/01 03:50:28;;;;;;;3.05;2.65;;;;;;;;;;4954366;29;20436;-71
2023/08/01 03:52:54;;;;;;;2.95;2.45;;;;;;;;;;4954061;29;20086;-71
2023/08/01 03:55:21;;;;;;;5.00;2.67;;;;;;;;;;4954427;29;20373;-71
2023/08/01 03:57:47;;;;;;;3.55;2.60;;;;;;;;;;4954773;28;20034;-71
2023/08/01 04:00:13;;;;;;;3.30;2.20;;;;;;;;;;4955179;28;20050;-71
2023/08/01 04:02:41;;;;;;;4.78;2.80;;;;;;;;;;4958318;28;20396;-71
2023/08/01 04:05:08;;;;;;;3.03;2.25;;;;;;;;;;4958248;29;20034;-71
2023/08/01 04:07:38;;;;;;;3.13;2.38;;;;;;;;;;4958121;29;20021;-71
2023/08/01 04:10:05;;;;;;;2.85;2.38;;;;;;;;;;4958059;29;20020;-71
2023/08/01 04:12:32;;;;;;;3.25;2.35;;;;;;;;;;4958112;29;20028;-71
2023/08/01 04:14:59;;;;;;;2.78;2.40;;;;;;;;;;4958314;29;20019;-71
2023/08/01 04:17:25;;;;;;;3.30;2.42;;;;;;;;;;4957952;29;20030;-71
2023/08/01 04:19:51;;;;;;;2.58;2.35;;;;;;;;;;4958407;29;20027;-71
2023/08/01 04:22:18;;;;;;;2.88;2.38;;;;;;;;;;4957543;29;20391;-71
2023/08/01 04:24:44;;;;;;;3.25;2.65;;;;;;;;;;4957965;29;20027;-71
2023/08/01 04:27:10;;;;;;;3.15;2.30;;;;;;;;;;4957779;29;20031;-71
2023/08/01 04:29:37;;;;;;;3.03;2.38;;;;;;;;;;4957690;29;20483;-71
2023/08/01 04:32:03;;;;;;;3.78;2.38;;;;;;;;;;4957877;29;20031;-71
2023/08/01 04:34:29;;;;;;;3.65;2.60;;;;;;;;;;4957716;28;20043;-71
2023/08/01 04:36:56;;;;;;;3.50;2.38;;;;;;;;;;4956951;29;20077;-71
2023/08/01 04:39:22;;;;;;;2.70;2.10;;;;;;;;;;4957710;28;20031;-71
2023/08/01 04:41:49;;;;;;;3.80;2.40;;;;;;;;;;4957258;29;20043;-71
2023/08/01 04:44:16;;;;;;;5.38;2.42;;;;;;;;;;4957403;28;20027;-71
2023/08/01 04:46:42;;;;;;;3.70;2.58;;;;;;;;;;4956194;29;20031;-71
2023/08/01 04:49:08;;;;;;;3.63;2.40;;;;;;;;;;4957358;29;20374;-71
2023/08/01 04:51:35;;;;;;;3.80;2.53;;;;;;;;;;4957177;28;20077;-71
2023/08/01 04:54:01;;;;;;;2.80;2.22;;;;;;;;;;4957288;29;20476;-71
2023/08/01 04:56:27;;;;;;;2.85;2.03;;;;;;;;;;4957315;29;20023;-71
2023/08/01 04:58:54;;;;;;;3.25;2.13;;;;;;;;;;4957500;29;20035;-71
2023/08/01 05:01:20;;;;;;;2.90;2.15;;;;;;;;;;4957148;29;20027;-71
2023/08/01 05:03:46;;;;;;;3.33;2.63;;;;;;;;;;4957045;29;20472;-71
2023/08/01 05:06:13;;;;;;;3.25;2.17;;;;;;;;;;4956916;29;20023;-71
2023/08/01 05:08:39;;;;;;;3.85;2.45;;;;;;;;;;4957171;28;20031;-71
2023/08/01 05:11:05;;;;;;;2.95;2.33;;;;;;;;;;4957286;28;20042;-71
2023/08/01 05:13:32;;;;;;;3.72;2.40;;;;;;;;;;4956068;28;20381;-71
2023/08/01 05:15:58;;;;;;;2.65;2.17;;;;;;;;;;4956938;29;20035;-71
2023/08/01 05:18:24;;;;;;;3.60;2.40;;;;;;;;;;4956662;29;20032;-71
2023/08/01 05:20:51;;;;;;;2.80;2.22;;;;;;;;;;4956611;29;20047;-71
2023/08/01 05:23:17;;;;;;;3.60;2.25;;;;;;;;;;4957026;29;20472;-71
2023/08/01 05:25:43;;;;;;;2.92;1.95;;;;;;;;;;4956649;28;20081;-71
2023/08/01 05:28:10;;;;;;;2.58;2.00;;;;;;;;;;4956702;29;20397;-71
2023/08/01 05:30:36;;;;;;;3.55;2.35;;;;;;;;;;4956600;29;20026;-71
2023/08/01 05:33:02;;;;;;;4.90;2.60;;;;;;;;;;4956169;29;20330;-71
2023/08/01 05:35:29;;;;;;;2.75;2.15;;;;;;;;;;4956600;29;20377;-71
2023/08/01 05:37:55;;;;;;;2.60;2.22;;;;;;;;;;4956221;28;20027;-71
2023/08/01 05:40:21;;;;;;;4.63;2.50;;;;;;;;;;4956223;29;20035;-71
2023/08/01 05:42:47;;;;;;;2.38;2.05;;;;;;;;;;4956433;28;20023;-71
2023/08/01 05:45:14;;;;;;;3.17;2.20;;;;;;;;;;4956450;29;20035;-71
2023/08/01 05:47:40;;;;;;;3.70;2.30;;;;;;;;;;4956171;29;20042;-71
2023/08/01 05:50:07;;;;;;;4.75;2.08;;;;;;;;;;4956435;28;20023;-71
2023/08/01 05:52:34;;;;;;;3.97;2.30;;;;;;;;;;4956158;28;20389;-71
2023/08/01 05:55:00;;;;;;;3.90;2.45;;;;;;;;;;4956240;29;20050;-69
2023/08/01 05:57:27;;;;;;;2.50;2.28;;;;;;;;;;4956166;29;20023;-70
2023/08/01 05:59:53;;;;;;;2.33;1.95;;;;;;;;;;4955962;28;20039;-71
2023/08/01 06:02:19;;;;;;;2.22;1.90;;;;;;;;;;4955960;28;20058;-70
2023/08/01 06:04:46;;;;;;;2.95;1.70;;;;;;;;;;4956005;29;20015;-70
2023/08/01 06:07:12;;;;;;;2.53;1.88;;;;;;;;;;4956095;29;20031;-71
2023/08/01 06:09:38;;;;;;;3.38;2.33;;;;;;;;;;4954832;29;20023;-71
2023/08/01 06:12:05;;;;;;;3.00;2.20;;;;;;;;;;4955860;29;20035;-71
2023/08/01 06:14:31;;;;;;;2.53;2.00;;;;;;;;;;4955624;29;20038;-71
2023/08/01 06:16:58;;;;;;;4.05;2.30;;;;;;;;;;4955200;28;20443;-71
2023/08/01 06:19:24;;;;;;;2.10;1.90;;;;;;;;;;4956008;29;20038;-70
2023/08/01 06:21:50;;;;;;;2.88;2.00;;;;;;;;;;4955535;29;20035;-71
2023/08/01 06:24:16;;;;;;;2.20;1.80;;;;;;;;;;4954780;28;20034;-71
2023/08/01 06:26:43;;;;;;;3.03;2.03;;;;;;;;;;4955611;29;20031;-70
2023/08/01 06:29:09;;;;;;;3.20;2.13;;;;;;;;;;4955585;28;20024;-71
2023/08/01 06:31:35;;;;;;;3.95;2.20;;;;;;;;;;4954236;29;20034;-71
2023/08/01 06:34:02;;;;;;;2.97;2.28;;;;;;;;;;4955179;28;20061;-71
2023/08/01 06:36:28;;;;;;;2.75;2.10;;;;;;;;;;4955597;28;20033;-71
2023/08/01 06:38:54;;;;;;;3.97;2.20;;;;;;;;;;4954680;28;20031;-71
2023/08/01 06:41:21;;;;;;;2.83;2.15;;;;;;;;;;4954973;29;20039;-71
2023/08/01 06:43:47;;;;;;;5.90;2.58;;;;;;;;;;4954935;29;20380;-71
2023/08/01 06:46:13;;;;;;;3.92;2.60;;;;;;;;;;4954597;29;20035;-71
2023/08/01 06:48:39;;;;;;;5.53;2.67;;;;;;;;;;4953709;29;20019;-71
2023/08/01 06:51:06;;;;;;;7.35;2.60;;;;;;;;;;4955230;28;20027;-71
2023/08/01 06:53:32;;;;;;;6.22;2.83;;;;;;;;;;4952622;29;20395;-71
2023/08/01 06:55:58;;;;;;;7.45;2.75;;;;;;;;;;4949152;29;20035;-71
2023/08/01 06:58:25;;;;;;;8.20;2.67;;;;;;;;;;4939098;29;20480;-71
2023/08/01 07:00:51;;;;;;;6.03;3.13;;;;;;;;;;4944972;28;20518;-71
2023/08/01 07:03:17;;;;;;;6.07;3.20;;;;;;;;;;4952455;28;20404;-71
2023/08/01 07:05:44;;;;;;;5.05;2.90;;;;;;;;;;4949920;29;20030;-72
2023/08/01 07:08:10;;;;;;;7.13;3.28;;;;;;;;;;4934832;29;20020;-71
2023/08/01 07:10:36;;;;;;;5.45;2.80;;;;;;;;;;4934686;29;20094;-71
2023/08/01 07:13:04;;;;;;;7.80;3.45;;;;;;;;;;4946388;29;20530;-71
2023/08/01 07:15:31;;;;;;;4.28;3.25;;;;;;;;;;4953920;29;20023;-71
2023/08/01 07:17:57;;;;;;;8.43;3.55;;;;;;;;;;4953629;28;20019;-72
2023/08/01 07:20:23;;;;;;;6.32;3.13;;;;;;;;;;4953834;28;20058;-71
2023/08/01 07:22:50;;;;;;;5.22;2.97;;;;;;;;;;4953784;29;20099;-71
2023/08/01 07:25:17;;;;;;;5.70;3.25;;;;;;;;;;4953834;29;20034;-71
2023/08/01 07:27:43;;;;;;;9.13;3.17;;;;;;;;;;4953532;29;20484;-71
2023/08/01 07:30:10;;;;;;;5.60;3.30;;;;;;;;;;4953459;29;20435;-71
2023/08/01 07:32:39;;;;;;;8.05;3.00;;;;;;;;;;4953612;28;20500;-71
2023/08/01 07:35:06;;;;;;;7.32;3.40;;;;;;;;;;4953204;28;20039;-71
2023/08/01 07:37:34;;;;;;;9.65;3.83;;;;;;;;;;4953464;28;20073;-71
2023/08/01 07:40:00;;;;;;;6.97;3.55;;;;;;;;;;4953723;29;20051;-71
2023/08/01 07:42:27;;;;;;;6.80;3.53;;;;;;;;;;4953646;29;20030;-71
2023/08/01 07:44:53;;;;;;;6.78;3.60;;;;;;;;;;4953368;28;20038;-71
2023/08/01 07:47:20;;;;;;;4.97;3.58;;;;;;;;;;4952812;29;20046;-71
2023/08/01 07:49:46;;;;;;;6.72;3.55;;;;;;;;;;4952176;29;20038;-70
2023/08/01 07:52:12;;;;;;;8.05;3.63;;;;;;;;;;4953489;29;20082;-71
2023/08/01 07:54:39;;;;;;;6.88;3.97;;;;;;;;;;4953352;29;20020;-70
2023/08/01 07:57:05;;;;;;;6.25;4.00;;;;;;;;;;4951661;29;20024;-70
2023/08/01 07:59:32;;;;;;;7.30;3.50;;;;;;;;;;4953063;29;20081;-71
2023/08/01 08:01:58;;;;;;;5.47;3.08;;;;;;;;;;4953181;29;20039;-70
2023/08/01 08:04:24;;;;;;;8.90;3.60;;;;;;;;;;4952313;29;20038;-70
2023/08/01 08:06:52;;;;;;;4.28;3.00;;;;;;;;;;4953157;29;20037;-71
2023/08/01 08:09:18;;;;;;;5.75;3.58;;;;;;;;;;4953250;29;20024;-69
2023/08/01 08:11:44;;;;;;;13.27;3.40;;;;;;;;;;4953200;28;20026;-70
2023/08/01 08:14:14;;;;;;;9.07;3.30;;;;;;;;;;4953168;29;20031;-71
2023/08/01 08:16:40;;;;;;;5.50;3.33;;;;;;;;;;4953424;29;20024;-70
2023/08/01 08:19:06;;;;;;;5.45;3.03;;;;;;;;;;4952553;29;20058;-71
2023/08/01 08:21:33;;;;;;;5.72;3.20;;;;;;;;;;4953268;29;20031;-71
2023/08/01 08:23:59;;;;;;;6.03;2.97;;;;;;;;;;4953504;29;20042;-71
2023/08/01 08:26:26;;;;;;;6.07;3.00;;;;;;;;;;4952873;28;20027;-71
2023/08/01 08:28:53;;;;;;;6.00;2.70;;;;;;;;;;4952459;28;20027;-70
2023/08/01 08:31:20;;;;;;;5.78;2.72;;;;;;;;;;4951859;28;20035;-71
2023/08/01 08:33:46;;;;;;;14.18;3.17;;;;;;;;;;4953107;28;20047;-71
2023/08/01 08:36:12;;;;;;;5.30;2.70;;;;;;;;;;4953261;29;20499;-71
2023/08/01 08:38:40;;;;;;;7.53;2.40;;;;;;;;;;4952181;29;20019;-70
2023/08/01 08:41:07;;;;;;;8.52;2.63;;;;;;;;;;4953433;28;20031;-71
2023/08/01 08:43:34;;;;;;;6.32;2.72;;;;;;;;;;4953305;29;20051;-70
2023/08/01 08:46:01;;;;;;;4.80;2.20;;;;;;;;;;4953191;28;20031;-71
2023/08/01 08:48:28;;;;;;;7.10;2.50;;;;;;;;;;4954763;29;20023;-71
2023/08/01 08:50:57;;;;;;;4.80;2.53;;;;;;;;;;4956703;29;20507;-71
2023/08/01 08:53:24;;;;;;;2.83;2.03;;;;;;;;;;4957187;29;20039;-71
2023/08/01 08:55:51;;;;;;;5.32;2.22;;;;;;;;;;4955598;28;20038;-71
2023/08/01 08:58:17;;;;;;;5.80;2.00;;;;;;;;;;4956329;29;20033;-71
2023/08/01 09:00:44;;;;;;;4.70;2.15;;;;;;;;;;4956384;29;20039;-69
2023/08/01 09:03:10;;;;;;;3.85;2.30;;;;;;;;;;4956359;28;20020;-70
2023/08/01 09:05:50;;;;;;;5.75;2.08;;;;;;;;;;4956251;28;20041;-71
2023/08/01 09:08:19;;;;;;;4.20;1.90;;;;;;;;;;4956394;29;20015;-69
2023/08/01 09:10:46;;;;;;;18.63;10.13;;;;;;;;;;4956290;28;20019;-70
2023/08/01 09:13:12;;;;;;;7.50;5.18;;;;;;;;;;4956490;29;20035;-70
2023/08/01 09:15:40;;;;;;;5.65;3.78;;;;;;;;;;4954100;28;20039;-70
2023/08/01 09:18:07;;;;;;;6.47;3.45;;;;;;;;;;4956014;28;20028;-70
2023/08/01 09:20:40;;;;;;;4.97;3.72;;;;;;;;;;4954518;28;20524;-70
2023/08/01 09:23:09;;;;;;;4.55;3.20;;;;;;;;;;4954890;29;20035;-70
2023/08/01 09:25:35;;;;;;;5.68;3.17;;;;;;;;;;4955280;29;20093;-71
2023/08/01 09:28:02;;;;;;;6.20;3.35;;;;;;;;;;4955757;29;20384;-70
2023/08/01 09:30:28;;;;;;;3.90;2.88;;;;;;;;;;4955875;29;20089;-70
2023/08/01 09:32:57;;;;;;;4.22;3.30;;;;;;;;;;4955829;28;20062;-71
2023/08/01 09:35:24;;;;;;;6.88;3.58;;;;;;;;;;4955817;28;20503;-70
2023/08/01 09:37:50;;;;;;;6.00;3.38;;;;;;;;;;4955176;28;20035;-70
2023/08/01 09:40:16;;;;;;;4.38;3.20;;;;;;;;;;4955266;28;20496;-70
2023/08/01 09:42:44;;;;;;;4.30;2.92;;;;;;;;;;4955697;28;20034;-70
2023/08/01 09:45:17;;;;;;;5.60;3.35;;;;;;;;;;4954288;29;20480;-70
2023/08/01 09:47:44;;;;;;;4.20;3.13;;;;;;;;;;4955344;28;20484;-71
2023/08/01 09:50:11;;;;;;;4.70;2.30;;;;;;;;;;4955629;29;20016;-70
2023/08/01 09:52:37;;;;;;;5.05;2.78;;;;;;;;;;4955489;29;20042;-70
2023/08/01 09:55:04;;;;;;;2.92;2.35;;;;;;;;;;4955044;29;20023;-70
2023/08/01 09:57:31;;;;;;;4.35;2.55;;;;;;;;;;4954461;29;20027;-71
2023/08/01 09:59:58;;;;;;;3.25;2.08;;;;;;;;;;4955137;28;20039;-70
2023/08/01 10:02:26;;;;;;;3.42;2.38;;;;;;;;;;4955051;28;20049;-70
2023/08/01 10:04:56;;;;;;;4.40;1.98;;;;;;;;;;4955456;28;20031;-71
2023/08/01 10:07:24;;;;;;;3.38;2.20;;;;;;;;;;4955001;28;20035;-70
2023/08/01 10:09:51;;;;;;;2.70;2.05;;;;;;;;;;4954765;29;20027;-70
2023/08/01 10:12:18;;;;;;;2.92;1.83;;;;;;;;;;4955088;29;20028;-70
2023/08/01 10:14:44;;;;;;;2.17;1.98;;;;;;;;;;4954916;28;20039;-71
2023/08/01 10:17:11;;;;;;;3.00;2.00;;;;;;;;;;4955459;29;20023;-70
2023/08/01 10:19:38;;;;;;;2.72;1.75;;;;;;;;;;4954954;29;20400;-70
2023/08/01 10:22:06;;;;;;;4.30;2.10;;;;;;;;;;4955114;28;20039;-70
2023/08/01 10:24:33;;;;;;;1.85;1.65;;;;;;;;;;4954663;29;20107;-71
2023/08/01 10:27:12;;;;;;;2.00;1.70;;;;;;;;;;4955117;29;20041;-70
2023/08/01 10:29:39;;;;;;;2.35;1.52;;;;;;;;;;4954981;29;20069;-71
2023/08/01 10:32:07;;;;;;;2.67;1.70;;;;;;;;;;4955216;28;20024;-70
2023/08/01 10:34:33;;;;;;;2.58;1.58;;;;;;;;;;4954897;29;20051;-70
2023/08/01 10:37:01;;;;;;;2.92;1.67;;;;;;;;;;4960377;28;20027;-70
2023/08/01 10:39:28;;;;;;;2.05;1.60;;;;;;;;;;4954582;28;20037;-70
2023/08/01 10:42:00;;;;;;;2.42;1.45;;;;;;;;;;4954587;29;20047;-70
2023/08/01 10:44:27;;;;;;;2.53;1.60;;;;;;;;;;4954874;28;20031;-71
2023/08/01 10:46:55;;;;;;;1.42;1.33;;;;;;;;;;4954476;28;20022;-71
2023/08/01 10:49:22;;;;;;;1.50;1.30;;;;;;;;;;4954945;29;20031;-70
2023/08/01 10:51:48;;;;;;;1.50;1.05;;;;;;;;;;4954281;28;20049;-71
2023/08/01 10:54:22;;;;;;;1.45;1.33;;;;;;;;;;4954864;29;20025;-70
2023/08/01 10:56:49;;;;;;;2.20;1.27;;;;;;;;;;4954849;28;20041;-71
2023/08/01 10:59:16;;;;;;;2.20;1.60;;;;;;;;;;4954708;28;20057;-71
2023/08/01 11:01:46;;;;;;;5.53;1.38;;;;;;;;;;4954046;29;20045;-70
2023/08/01 11:04:19;;;;;;;1.40;1.30;;;;;;;;;;4955048;28;20023;-71
2023/08/01 11:06:46;;;;;;;3.03;1.40;;;;;;;;;;4954530;28;20042;-71
2023/08/01 11:09:17;;;;;;;1.70;1.40;;;;;;;;;;4950710;28;20411;-71
2023/08/01 11:11:43;;;;;;;;;;;;;;;;;;4951505;28;20019;-71
2023/08/01 11:14:09;;;;;;;3.00;1.80;;;;;;;;;;4951752;29;19910;-71
2023/08/01 11:16:38;;;;;;;3.08;1.63;;;;;;;;;;4953744;29;20027;-71
2023/08/01 11:19:04;;;;;;;2.05;1.52;;;;;;;;;;4953474;29;20409;-71
2023/08/01 11:21:30;;;;;;;2.65;2.00;;;;;;;;;;4953410;29;20089;-70
2023/08/01 11:23:57;;;;;;;3.65;2.25;;;;;;;;;;4953684;29;20041;-71
2023/08/01 11:26:23;;;;;;;3.38;1.80;;;;;;;;;;4953788;28;20035;-70
2023/08/01 11:28:50;;;;;;;3.47;1.38;;;;;;;;;;4953764;29;20031;-71
2023/08/01 11:31:16;;;;;;;1.15;1.05;;;;;;;;;;4953991;29;20031;-70
2023/08/01 11:33:43;;;;;;;3.85;1.02;;;;;;;;;;4953519;28;20103;-70
2023/08/01 11:36:09;;;;;;;1.52;0.50;;;;;;;;;;4952981;29;20026;-71
2023/08/01 11:38:36;;;;;;;0.93;0.60;;;;;;;;;;4953581;29;20492;-70
2023/08/01 11:41:04;;;;;;;0.63;0.60;;;;;;;;;;4952148;29;20047;-71
2023/08/01 11:43:41;;;;;;;0.30;0.30;;;;;;;;;;4953594;29;20027;-71
2023/08/01 11:46:07;;;;;;;0.65;0.45;;;;;;;;;;4953006;29;20081;-71
2023/08/01 11:48:33;;;;;;;0.30;0.30;;;;;;;;;;4952345;28;20027;-71
2023/08/01 11:51:00;;;;;;;0.98;0.52;;;;;;;;;;4935935;29;20027;-70
2023/08/01 11:53:27;;;;;;;0.65;0.40;;;;;;;;;;4947190;29;20034;-70
2023/08/01 11:55:56;;;;;;;1.83;0.40;;;;;;;;;;4940503;28;20038;-71
2023/08/01 11:58:35;;;;;;;0.95;0.50;;;;;;;;;;4934190;29;20024;-70
2023/08/01 12:01:02;;;;;;;0.32;0.30;;;;;;;;;;4932480;29;20031;-71
2023/08/01 12:03:28;;;;;;;0.30;0.30;;;;;;;;;;4934346;29;20043;-71
2023/08/01 12:06:03;;;;;;;0.30;0.30;;;;;;;;;;4933599;29;20374;-71
2023/08/01 12:08:35;;;;;;;0.22;0.22;;;;;;;;;;4951486;29;20029;-70
2023/08/01 12:11:02;;;;;;;0.63;0.47;;;;;;;;;;4953275;29;20023;-70
2023/08/01 12:13:28;;;;;;;0.90;0.32;;;;;;;;;;4953483;29;20035;-71
2023/08/01 12:15:59;;;;;;;0.20;0.20;;;;;;;;;;4953502;29;20039;-71
2023/08/01 12:18:26;;;;;;;2.17;0.28;;;;;;;;;;4953162;28;20035;-71
2023/08/01 12:20:53;;;;;;;0.30;0.30;;;;;;;;;;4951321;28;20051;-71
2023/08/01 12:23:20;;;;;;;0.35;0.35;;;;;;;;;;4956279;29;20035;-70
2023/08/01 12:25:49;;;;;;;0.30;0.30;;;;;;;;;;4957081;29;20038;-71
2023/08/01 12:28:15;;;;;;;1.10;0.30;;;;;;;;;;4957145;28;20038;-71
2023/08/01 12:30:42;;;;;;;0.25;0.25;;;;;;;;;;4957067;28;20035;-71
2023/08/01 12:33:09;;;;;;;4.95;0.43;;;;;;;;;;4956619;28;20051;-71
2023/08/01 12:35:39;;;;;;;0.38;0.38;;;;;;;;;;4956856;29;20027;-71
2023/08/01 12:38:05;;;;;;;0.38;0.38;;;;;;;;;;4956866;29;20032;-71
2023/08/01 12:40:31;;;;;;;0.73;0.32;;;;;;;;;;4956743;29;20035;-71
2023/08/01 12:42:58;;;;;;;2.83;0.55;;;;;;;;;;4956698;29;20031;-71
2023/08/01 12:45:24;;;;;;;0.63;0.32;;;;;;;;;;4956793;28;20556;-71
2023/08/01 12:47:50;;;;;;;0.30;0.30;;;;;;;;;;4956552;28;20039;-71
2023/08/01 12:50:17;;;;;;;0.80;0.40;;;;;;;;;;4955658;29;20031;-71
2023/08/01 12:52:43;;;;;;;0.88;0.60;;;;;;;;;;4956591;29;20030;-71
2023/08/01 12:55:09;;;;;;;1.05;0.60;;;;;;;;;;4956692;29;20028;-71
2023/08/01 12:57:36;;;;;;;1.52;0.50;;;;;;;;;;4956913;29;20039;-71
2023/08/01 13:00:02;;;;;;;1.13;0.60;;;;;;;;;;4955176;29;20035;-71
2023/08/01 13:02:29;;;;;;;1.10;0.52;;;;;;;;;;4956087;28;20033;-71
2023/08/01 13:04:55;;;;;;;0.80;0.70;;;;;;;;;;4956339;28;20404;-72
2023/08/01 13:07:21;;;;;;;0.68;0.68;;;;;;;;;;4956136;28;20407;-71
2023/08/01 13:09:48;;;;;;;1.38;0.90;;;;;;;;;;4956603;29;20019;-71
2023/08/01 13:12:14;;;;;;;0.85;0.60;;;;;;;;;;4955441;28;20037;-71
2023/08/01 13:14:40;;;;;;;2.83;0.90;;;;;;;;;;4954979;29;20038;-71
2023/08/01 13:17:06;;;;;;;0.70;0.70;;;;;;;;;;4955949;29;20050;-71
2023/08/01 13:19:33;;;;;;;1.90;1.30;;;;;;;;;;4955876;29;20027;-71
2023/08/01 13:21:59;;;;;;;7.95;1.20;;;;;;;;;;4954788;29;20042;-71
2023/08/01 13:24:25;;;;;;;1.10;0.90;;;;;;;;;;4954985;29;20082;-72
2023/08/01 13:26:52;;;;;;;1.95;1.10;;;;;;;;;;4955646;28;20480;-71
2023/08/01 13:29:18;;;;;;;6.07;1.10;;;;;;;;;;4956388;29;20027;-71
2023/08/01 13:31:44;;;;;;;1.80;1.20;;;;;;;;;;4955316;28;20031;-71
2023/08/01 13:34:11;;;;;;;2.13;1.20;;;;;;;;;;4955345;28;20054;-71
2023/08/01 13:36:37;;;;;;;3.75;1.13;;;;;;;;;;4955365;29;20023;-71
2023/08/01 13:39:03;;;;;;;1.77;1.20;;;;;;;;;;4955456;29;20407;-71
2023/08/01 13:41:29;;;;;;;1.30;1.20;;;;;;;;;;4955783;29;20031;-71
2023/08/01 13:43:56;;;;;;;1.75;1.20;;;;;;;;;;4955953;29;20039;-71
2023/08/01 13:46:22;;;;;;;2.03;1.25;;;;;;;;;;4955171;29;20016;-71
2023/08/01 13:48:48;;;;;;;1.75;1.30;;;;;;;;;;4955884;29;20026;-70
2023/08/01 13:51:15;;;;;;;1.30;1.20;;;;;;;;;;4937021;29;20420;-71
2023/08/01 13:53:42;;;;;;;2.63;1.65;;;;;;;;;;4954959;29;20026;-71
2023/08/01 13:56:08;;;;;;;2.33;1.60;;;;;;;;;;4955350;29;20038;-71
2023/08/01 13:58:34;;;;;;;1.85;1.40;;;;;;;;;;4955012;29;20027;-71
2023/08/01 14:01:04;;;;;;;1.65;1.55;;;;;;;;;;4954674;29;20043;-71
2023/08/01 14:03:31;;;;;;;1.50;1.40;;;;;;;;;;4955050;29;20031;-71
2023/08/01 14:06:04;;;;;;;1.95;1.73;;;;;;;;;;4955133;28;20496;-71
2023/08/01 14:08:30;;;;;;;1.85;1.38;;;;;;;;;;4955030;28;20039;-71
2023/08/01 14:10:56;;;;;;;2.75;1.70;;;;;;;;;;4954889;29;20069;-71
2023/08/01 14:13:22;;;;;;;2.20;1.35;;;;;;;;;;4954717;29;20037;-71
2023/08/01 14:15:49;;;;;;;2.05;1.45;;;;;;;;;;4954681;29;20505;-71
2023/08/01 14:18:15;;;;;;;2.13;1.70;;;;;;;;;;4954929;29;20027;-71
2023/08/01 14:20:41;;;;;;;1.95;1.55;;;;;;;;;;4954522;28;20086;-71
2023/08/01 14:23:08;;;;;;;1.58;1.42;;;;;;;;;;4954786;29;20039;-71
2023/08/01 14:25:35;;;;;;;3.03;1.77;;;;;;;;;;4954716;29;20468;-71
2023/08/01 14:28:01;;;;;;;2.08;1.88;;;;;;;;;;4954841;29;20027;-71
2023/08/01 14:30:28;;;;;;;2.28;1.90;;;;;;;;;;4954210;29;20033;-71
2023/08/01 14:33:01;;;;;;;2.30;1.80;;;;;;;;;;4953111;29;20052;-71
2023/08/01 14:35:27;;;;;;;1.95;1.75;;;;;;;;;;4954748;28;20102;-71
2023/08/01 14:37:55;;;;;;;1.98;1.70;;;;;;;;;;4954285;28;20037;-71
2023/08/01 14:40:23;;;;;;;2.42;1.77;;;;;;;;;;4954254;28;20055;-71